Time;durP1;ratioP1;P1;durP2;ratioP2;P2;SDS_P1;SDS_P2;PMS_P1;PMS_P2;Temp;Humidity;BMP_temperature;BMP_pressure;BME280_temperature;BME280_humidity;BME280_pressure;Samples;Min_cycle;Max_cycle;Signal;HPM_P1;HPM_P2
2022/05/04 00:00:55;;;;;;;46.45;28.30;;;;;;;10.90;75.01;99796.31;5029462;28;20033;-66
2022/05/04 00:03:23;;;;;;;40.42;24.30;;;;;;;10.87;74.98;99801.72;5021953;28;20064;-67
2022/05/04 00:05:51;;;;;;;41.25;25.70;;;;;;;10.86;74.99;99796.56;5027776;28;20033;-67
2022/05/04 00:08:19;;;;;;;41.33;26.52;;;;;;;10.83;74.93;99796.69;5034430;28;20087;-66
2022/05/04 00:10:48;;;;;;;32.58;21.45;;;;;;;10.82;74.97;99798.47;5027647;28;20033;-66
2022/05/04 00:13:13;;;;;;;38.63;23.85;;;;;;;10.84;74.86;99795.78;5022013;28;20541;-67
2022/05/04 00:15:39;;;;;;;42.35;26.15;;;;;;;10.80;75.08;99797.69;5009637;28;20033;-66
2022/05/04 00:18:07;;;;;;;31.00;21.65;;;;;;;10.78;74.93;99798.69;5008077;28;20037;-68
2022/05/04 00:20:35;;;;;;;40.25;25.30;;;;;;;10.74;74.87;99792.75;5010231;28;20045;-66
2022/05/04 00:23:00;;;;;;;41.83;26.38;;;;;;;10.69;74.96;99792.97;5009740;28;20033;-68
2022/05/04 00:25:29;;;;;;;38.55;24.02;;;;;;;10.65;75.09;99790.56;5010264;28;20034;-67
2022/05/04 00:27:54;;;;;;;38.00;23.70;;;;;;;10.61;75.33;99797.78;5011410;28;20485;-66
2022/05/04 00:30:20;;;;;;;42.72;25.50;;;;;;;10.62;75.12;99791.56;5013647;28;20034;-66
2022/05/04 00:32:48;;;;;;;37.83;23.92;;;;;;;10.63;74.71;99790.66;5012473;28;20034;-67
2022/05/04 00:35:14;;;;;;;30.23;19.67;;;;;;;10.65;74.92;99780.84;5005534;28;20091;-66
2022/05/04 00:37:39;;;;;;;33.20;22.70;;;;;;;10.66;74.46;99787.00;5020290;28;20048;-67
2022/05/04 00:40:06;;;;;;;40.50;22.33;;;;;;;10.61;74.44;99781.06;5001661;28;20442;-66
2022/05/04 00:42:31;;;;;;;29.63;20.90;;;;;;;10.60;74.50;99787.28;5010534;28;20046;-67
2022/05/04 00:44:59;;;;;;;34.55;21.33;;;;;;;10.56;74.67;99777.81;5009980;28;20092;-68
2022/05/04 00:47:25;;;;;;;36.20;23.27;;;;;;;10.55;74.63;99776.13;5007121;28;20121;-67
2022/05/04 00:49:52;;;;;;;33.05;20.15;;;;;;;10.51;74.58;99784.19;5011596;28;20069;-67
2022/05/04 00:52:18;;;;;;;34.25;23.05;;;;;;;10.53;74.11;99784.09;5014638;28;20041;-67
2022/05/04 00:54:48;;;;;;;31.08;21.20;;;;;;;10.48;74.17;99784.34;5005116;28;20041;-67
2022/05/04 00:58:54;;;;;;;35.05;22.40;;;;;;;10.35;74.46;99790.28;5011444;28;20122;-67
2022/05/04 01:00:05;;;;;;;34.20;22.55;;;;;;;10.30;74.71;99778.16;5005478;28;20037;-67
2022/05/04 01:02:31;;;;;;;34.45;20.60;;;;;;;10.28;75.10;99776.53;5009879;28;20037;-67
2022/05/04 01:04:59;;;;;;;31.83;21.48;;;;;;;10.28;74.92;99782.66;5013880;28;20044;-67
2022/05/04 01:07:26;;;;;;;35.30;22.23;;;;;;;10.26;74.60;99778.34;5016153;28;20491;-68
2022/05/04 01:09:51;;;;;;;33.42;20.23;;;;;;;10.21;75.52;99781.19;5014867;28;20076;-65
2022/05/04 01:12:22;;;;;;;37.20;24.02;;;;;;;10.13;74.88;99774.59;5013957;28;20116;-67
2022/05/04 01:14:47;;;;;;;34.83;20.95;;;;;;;10.08;75.52;99778.31;5013060;28;20038;-67
2022/05/04 01:17:13;;;;;;;32.60;21.40;;;;;;;10.03;75.18;99777.66;5010807;28;20044;-67
2022/05/04 01:19:38;;;;;;;32.47;21.02;;;;;;;10.03;75.60;99787.34;5010637;28;20046;-67
2022/05/04 01:22:03;;;;;;;36.88;23.25;;;;;;;10.04;75.17;99784.66;5019740;28;20041;-67
2022/05/04 01:24:29;;;;;;;38.60;23.52;;;;;;;10.01;75.36;99787.41;5016441;28;20037;-67
2022/05/04 01:26:54;;;;;;;31.33;20.55;;;;;;;10.00;75.64;99783.09;5006519;28;20040;-68
2022/05/04 01:29:20;;;;;;;37.47;23.35;;;;;;;9.90;74.15;99779.19;5028733;28;20049;-69
2022/05/04 01:31:45;;;;;;;37.80;23.98;;;;;;;9.78;75.39;99785.84;5014986;28;20484;-67
2022/05/04 01:34:11;;;;;;;35.97;22.90;;;;;;;9.79;75.29;99786.72;5013341;28;20056;-67
2022/05/04 01:36:37;;;;;;;35.03;22.92;;;;;;;9.67;74.85;99789.00;5009736;28;20037;-66
2022/05/04 01:39:02;;;;;;;45.55;22.55;;;;;;;9.56;74.67;99787.75;5013092;28;20037;-66
2022/05/04 01:44:12;;;;;;;35.78;22.05;;;;;;;9.39;74.39;99785.88;5014257;28;20037;-66
2022/05/04 01:46:37;;;;;;;33.03;20.23;;;;;;;9.24;74.31;99790.88;5017980;28;20030;-67
2022/05/04 01:49:02;;;;;;;36.03;23.13;;;;;;;9.13;74.38;99792.28;5028923;28;20033;-67
2022/05/04 01:51:28;;;;;;;32.70;20.77;;;;;;;9.06;75.13;99790.81;5030415;28;20145;-69
2022/05/04 01:53:53;;;;;;;34.17;20.70;;;;;;;8.95;75.45;99791.28;5027462;28;20482;-67
2022/05/04 01:56:19;;;;;;;37.78;23.60;;;;;;;8.84;76.03;99797.00;5037760;28;20052;-67
2022/05/04 01:58:44;;;;;;;33.17;22.60;;;;;;;8.72;75.42;99798.38;5038361;28;20128;-68
2022/05/04 02:01:09;;;;;;;34.55;23.30;;;;;;;8.69;75.52;99797.63;5030173;28;20045;-68
2022/05/04 02:03:37;;;;;;;31.40;21.25;;;;;;;8.60;75.86;99797.09;5032228;28;20418;-68
2022/05/04 02:06:02;;;;;;;38.03;23.13;;;;;;;8.58;76.25;99798.09;5033578;28;20163;-68
2022/05/04 02:08:29;;;;;;;34.60;22.85;;;;;;;8.51;76.45;99799.25;5034647;28;20041;-67
2022/05/04 02:10:55;;;;;;;40.17;24.13;;;;;;;8.47;75.78;99795.06;5032903;28;20040;-67
2022/05/04 02:13:20;;;;;;;32.90;22.35;;;;;;;8.36;76.48;99791.03;5019365;28;20037;-67
2022/05/04 02:15:46;;;;;;;36.03;21.48;;;;;;;8.35;76.60;99791.09;5033444;28;20069;-67
2022/05/04 02:18:11;;;;;;;37.10;21.20;;;;;;;8.31;76.42;99784.25;5037656;28;20452;-65
2022/05/04 02:20:36;;;;;;;32.97;23.17;;;;;;;8.24;76.78;99793.28;5035403;28;20453;-66
2022/05/04 02:23:02;;;;;;;33.10;20.75;;;;;;;8.25;77.40;99790.63;5015840;28;20068;-67
2022/05/04 02:25:27;;;;;;;35.97;24.25;;;;;;;8.30;77.41;99793.06;5033241;28;20044;-68
2022/05/04 02:27:52;;;;;;;41.45;25.80;;;;;;;8.34;77.29;99792.88;5033194;28;20034;-68
2022/05/04 02:30:18;;;;;;;30.83;20.88;;;;;;;8.36;76.38;99790.19;5034247;28;20487;-68
2022/05/04 02:32:43;;;;;;;32.47;21.77;;;;;;;8.35;75.72;99783.22;5033652;28;20125;-68
2022/05/04 02:37:57;;;;;;;35.40;23.17;;;;;;;8.30;76.43;99785.19;5035404;28;20545;-68
2022/05/04 02:40:22;;;;;;;34.97;21.05;;;;;;;8.24;75.79;99785.41;5036594;28;20037;-68
2022/05/04 02:42:48;;;;;;;31.80;20.88;;;;;;;8.21;76.97;99783.75;5036785;28;20089;-67
2022/05/04 02:45:14;;;;;;;25.02;18.35;;;;;;;8.32;76.14;99772.84;5035401;28;20040;-67
2022/05/04 02:47:40;;;;;;;34.97;20.13;;;;;;;8.33;77.87;99778.03;5035467;28;20033;-68
2022/05/04 02:50:06;;;;;;;30.27;17.13;;;;;;;8.38;77.23;99778.69;5037156;28;20116;-67
2022/05/04 02:52:32;;;;;;;28.98;17.90;;;;;;;8.44;77.02;99782.00;5038169;28;20029;-69
2022/05/04 02:54:57;;;;;;;34.42;18.92;;;;;;;8.46;76.80;99777.56;5036291;28;20045;-66
2022/05/04 02:57:23;;;;;;;31.88;19.33;;;;;;;8.52;76.80;99774.69;5033553;28;20514;-67
2022/05/04 02:59:48;;;;;;;29.63;18.15;;;;;;;8.56;76.73;99779.75;5031372;28;20111;-68
2022/05/04 03:02:28;;;;;;;31.00;16.55;;;;;;;8.62;76.91;99778.66;5032669;28;20037;-68
2022/05/04 03:04:59;;;;;;;28.65;17.65;;;;;;;8.64;76.89;99774.19;5032723;28;20387;-68
2022/05/04 03:07:26;;;;;;;26.52;16.70;;;;;;;8.70;77.28;99773.06;5031694;28;20030;-68
2022/05/04 03:09:53;;;;;;;21.75;14.27;;;;;;;8.76;75.83;99765.78;5036898;28;20038;-67
2022/05/04 03:12:18;;;;;;;25.23;16.27;;;;;;;8.79;76.13;99770.06;5036125;28;20572;-65
2022/05/04 03:14:44;;;;;;;26.35;15.73;;;;;;;8.82;76.19;99777.81;5033682;28;20049;-68
2022/05/04 03:17:10;;;;;;;31.48;18.13;;;;;;;8.82;74.92;99775.19;5014894;28;20042;-66
2022/05/04 03:19:35;;;;;;;26.77;16.30;;;;;;;8.77;75.26;99780.63;5032488;28;20236;-67
2022/05/04 03:22:01;;;;;;;26.38;16.27;;;;;;;8.72;75.87;99776.50;5031490;28;20049;-67
2022/05/04 03:24:26;;;;;;;24.00;14.88;;;;;;;8.72;75.16;99781.75;5032616;28;20068;-68
2022/05/04 03:26:51;;;;;;;24.73;14.95;;;;;;;8.76;75.23;99778.94;5031994;28;20044;-67
2022/05/04 03:29:17;;;;;;;27.70;16.00;;;;;;;8.73;74.25;99781.66;5036289;28;20487;-65
2022/05/04 03:31:42;;;;;;;25.95;16.52;;;;;;;8.73;74.99;99778.19;5036106;28;20460;-67
2022/05/04 03:34:07;;;;;;;24.38;15.15;;;;;;;8.69;74.19;99780.13;5016102;28;20494;-68
2022/05/04 03:36:35;;;;;;;23.33;15.07;;;;;;;8.63;73.23;99782.13;5031056;28;20109;-67
2022/05/04 03:39:01;;;;;;;27.85;15.80;;;;;;;8.50;73.72;99780.00;5032076;28;20517;-67
2022/05/04 03:41:26;;;;;;;27.95;18.48;;;;;;;8.36;74.09;99779.66;5035174;28;20042;-67
2022/05/04 03:43:52;;;;;;;31.27;18.33;;;;;;;8.22;74.03;99772.38;5036624;28;20060;-68
2022/05/04 03:46:20;;;;;;;33.20;20.13;;;;;;;8.08;74.57;99772.03;5035491;28;20588;-66
2022/05/04 03:48:47;;;;;;;27.05;17.65;;;;;;;7.99;74.39;99773.25;5036074;28;20037;-66
2022/05/04 03:51:14;;;;;;;25.77;17.25;;;;;;;7.91;75.02;99777.94;5036013;28;20037;-67
2022/05/04 03:53:40;;;;;;;30.08;19.58;;;;;;;7.85;74.63;99773.78;5020747;28;20033;-67
2022/05/04 03:56:07;;;;;;;31.60;18.80;;;;;;;7.78;75.21;99774.94;5032683;28;20033;-67
2022/05/04 03:58:33;;;;;;;30.33;18.05;;;;;;;7.73;75.56;99782.13;5034135;28;20053;-66
2022/05/04 04:00:59;;;;;;;29.95;18.95;;;;;;;7.67;75.70;99779.72;5036979;28;20037;-67
2022/05/04 04:03:24;;;;;;;30.13;17.98;;;;;;;7.65;76.03;99784.16;5032521;28;20072;-67
2022/05/04 04:05:50;;;;;;;30.30;17.95;;;;;;;7.59;75.84;99785.25;5030534;28;20144;-68
2022/05/04 04:08:15;;;;;;;31.65;19.75;;;;;;;7.57;76.26;99787.09;5031266;28;20041;-67
2022/05/04 04:10:40;;;;;;;30.38;18.65;;;;;;;7.52;76.02;99791.66;5032080;28;20456;-68
2022/05/04 04:13:08;;;;;;;33.97;21.00;;;;;;;7.41;76.32;99786.78;5031344;28;20547;-69
2022/05/04 04:15:34;;;;;;;34.70;21.40;;;;;;;7.35;76.93;99792.25;5009463;28;20041;-68
2022/05/04 04:18:05;;;;;;;33.25;20.48;;;;;;;7.33;77.20;99780.94;5030430;28;20056;-67
2022/05/04 04:23:14;;;;;;;31.77;21.75;;;;;;;7.15;77.39;99774.59;5030833;28;20041;-68
2022/05/04 04:25:39;;;;;;;30.65;18.95;;;;;;;7.12;77.22;99776.50;5037316;28;20033;-68
2022/05/04 04:28:05;;;;;;;34.28;19.80;;;;;;;7.13;78.14;99772.94;5031691;28;20056;-67
2022/05/04 04:30:30;;;;;;;29.48;19.30;;;;;;;7.17;77.52;99777.19;5031360;28;20633;-66
2022/05/04 04:32:56;;;;;;;32.10;21.17;;;;;;;7.20;77.67;99777.91;5018763;28;20041;-67
2022/05/04 04:35:21;;;;;;;34.50;19.00;;;;;;;7.24;77.31;99779.53;5036921;28;20036;-67
2022/05/04 04:37:46;;;;;;;34.08;20.20;;;;;;;7.23;77.57;99780.44;5031307;28;20038;-67
2022/05/04 04:40:12;;;;;;;32.50;19.73;;;;;;;7.26;77.22;99787.31;5031212;28;20037;-67
2022/05/04 04:42:37;;;;;;;32.15;20.50;;;;;;;7.25;76.91;99778.59;5031120;28;20034;-66
2022/05/04 04:45:15;;;;;;;36.47;21.85;;;;;;;7.24;76.68;99783.94;5030443;28;20034;-69
2022/05/04 04:47:40;;;;;;;34.13;21.85;;;;;;;7.21;77.35;99781.38;5026252;28;20037;-67
2022/05/04 04:50:06;;;;;;;33.28;21.23;;;;;;;7.17;77.11;99783.28;5049851;28;20040;-68
2022/05/04 04:52:32;;;;;;;31.52;19.05;;;;;;;7.22;77.73;99788.38;5049980;28;20496;-68
2022/05/04 04:54:57;;;;;;;29.92;18.73;;;;;;;7.27;77.38;99789.91;5050341;28;20037;-67
2022/05/04 04:57:22;;;;;;;35.00;19.15;;;;;;;7.28;77.43;99790.75;5049194;28;20037;-68
2022/05/04 04:59:49;;;;;;;35.47;21.75;;;;;;;7.29;77.52;99795.09;5049886;28;20522;-68
2022/05/04 05:02:15;;;;;;;31.55;19.98;;;;;;;7.30;77.22;99795.03;5049911;28;20029;-67
2022/05/04 05:04:40;;;;;;;28.38;16.67;;;;;;;7.33;77.31;99794.06;5050458;28;20124;-68
2022/05/04 05:07:06;;;;;;;38.78;22.23;;;;;;;7.33;77.18;99794.06;5031251;28;20098;-68
2022/05/04 05:09:31;;;;;;;30.77;19.08;;;;;;;7.39;77.39;99793.00;5050698;28;20040;-70
2022/05/04 05:11:56;;;;;;;33.22;20.98;;;;;;;7.48;77.19;99792.66;5050625;28;20409;-69
2022/05/04 05:17:06;;;;;;;33.72;18.67;;;;;;;7.63;77.04;99796.47;5055545;28;20509;-67
2022/05/04 05:19:31;;;;;;;33.47;20.00;;;;;;;7.65;76.87;99794.66;5055635;28;20037;-66
2022/05/04 05:21:56;;;;;;;32.25;19.33;;;;;;;7.70;76.71;99790.97;5054999;28;20045;-67
2022/05/04 05:24:22;;;;;;;31.77;18.63;;;;;;;7.71;76.66;99797.94;5054680;28;20297;-68
2022/05/04 05:26:47;;;;;;;26.90;18.05;;;;;;;7.78;76.80;99793.31;5053692;28;20033;-68
2022/05/04 05:29:12;;;;;;;26.35;16.63;;;;;;;7.91;76.56;99801.56;5054068;28;20037;-67
2022/05/04 05:31:38;;;;;;;31.92;17.48;;;;;;;8.03;76.33;99814.22;5055268;28;20486;-67
2022/05/04 05:34:04;;;;;;;27.13;15.55;;;;;;;8.21;75.99;99798.66;5050502;28;20059;-69
2022/05/04 05:36:29;;;;;;;24.80;13.68;;;;;;;8.38;75.41;99802.34;5048216;28;20025;-68
2022/05/04 05:38:54;;;;;;;25.67;12.70;;;;;;;8.58;74.23;99801.56;5049484;28;20370;-68
2022/05/04 05:41:23;;;;;;;27.67;12.55;;;;;;;8.74;74.07;99812.31;5049472;28;20558;-69
2022/05/04 05:43:48;;;;;;;27.92;12.07;;;;;;;8.97;72.38;99811.34;5049349;28;20033;-68
2022/05/04 05:46:14;;;;;;;18.38;9.77;;;;;;;9.09;72.15;99809.13;5047981;28;20565;-69
2022/05/04 05:48:39;;;;;;;26.15;10.80;;;;;;;9.17;70.49;99809.63;5031121;28;20037;-68
2022/05/04 05:51:05;;;;;;;23.80;10.10;;;;;;;9.20;70.06;99805.09;5049457;28;20036;-69
2022/05/04 05:53:31;;;;;;;23.63;10.70;;;;;;;9.24;69.40;99809.31;5048960;28;20090;-69
2022/05/04 05:55:57;;;;;;;22.05;11.35;;;;;;;9.19;69.67;99803.38;5048479;28;20502;-69
2022/05/04 05:58:23;;;;;;;17.42;10.18;;;;;;;9.29;69.29;99800.38;5047329;28;20091;-69
2022/05/04 06:00:49;;;;;;;16.25;9.88;;;;;;;9.32;68.99;99795.81;5047833;28;20056;-68
2022/05/04 06:03:16;;;;;;;17.50;10.63;;;;;;;9.38;68.55;99795.56;5047362;28;20039;-67
2022/05/04 06:05:41;;;;;;;19.70;10.82;;;;;;;9.45;69.02;99801.38;5051472;28;20029;-68
2022/05/04 06:08:09;;;;;;;27.08;12.10;;;;;;;9.56;68.58;99799.13;5049326;28;20047;-69
2022/05/04 06:10:35;;;;;;;26.55;10.43;;;;;;;9.68;67.64;99798.59;5045520;28;20087;-66
2022/05/04 06:13:00;;;;;;;17.25;9.85;;;;;;;9.79;67.77;99797.25;5047666;28;20040;-68
2022/05/04 06:15:26;;;;;;;21.92;11.18;;;;;;;9.83;66.86;99799.66;5047639;28;20065;-68
2022/05/04 06:17:51;;;;;;;22.88;12.93;;;;;;;9.95;66.46;99802.66;5047362;28;20057;-66
2022/05/04 06:20:17;;;;;;;16.95;11.15;;;;;;;10.17;66.43;99798.09;5045791;28;20044;-66
2022/05/04 06:22:42;;;;;;;35.13;14.77;;;;;;;10.45;65.57;99799.44;5047534;28;20043;-67
2022/05/04 06:25:08;;;;;;;21.95;12.23;;;;;;;10.68;64.36;99800.94;5045273;28;20120;-67
2022/05/04 06:27:33;;;;;;;17.38;10.68;;;;;;;10.83;62.89;99808.13;5046838;28;20519;-67
2022/05/04 06:35:44;;;;;;;18.92;12.35;;;;;;;10.89;63.13;99809.59;5040456;28;20043;-67
2022/05/04 06:38:10;;;;;;;23.27;11.75;;;;;;;10.91;63.29;99808.56;5049443;28;20112;-65
2022/05/04 06:40:36;;;;;;;23.45;12.70;;;;;;;11.00;63.44;99811.66;5045372;28;20103;-65
2022/05/04 06:43:01;;;;;;;25.38;11.88;;;;;;;11.05;62.76;99807.00;5047168;28;20490;-65
2022/05/04 06:45:27;;;;;;;22.60;13.73;;;;;;;11.20;62.37;99808.88;5047270;28;20029;-65
2022/05/04 06:47:52;;;;;;;22.58;11.93;;;;;;;11.41;61.40;99806.91;5046794;28;20401;-67
2022/05/04 06:50:18;;;;;;;22.98;12.07;;;;;;;11.57;61.06;99805.16;5044081;28;20067;-66
2022/05/04 06:52:43;;;;;;;20.33;11.70;;;;;;;11.83;60.15;99802.91;5032214;28;20112;-66
2022/05/04 06:55:09;;;;;;;18.98;12.38;;;;;;;11.90;60.46;99808.75;5050101;28;20044;-65
2022/05/04 06:57:36;;;;;;;25.30;12.27;;;;;;;11.82;60.50;99806.50;5048123;28;20055;-66
2022/05/04 07:00:05;;;;;;;22.80;14.98;;;;;;;11.80;60.07;99803.94;5050157;28;20029;-64
2022/05/04 07:02:33;;;;;;;19.15;10.75;;;;;;;11.90;60.85;99816.69;5050249;28;20445;-67
2022/05/04 07:04:59;;;;;;;19.20;11.77;;;;;;;12.00;59.90;99808.16;5050841;28;20059;-66
2022/05/04 07:07:25;;;;;;;22.67;11.95;;;;;;;11.98;59.29;99814.47;5031889;28;20033;-66
2022/05/04 07:09:50;;;;;;;18.65;12.10;;;;;;;11.77;59.82;99808.53;5050086;28;20526;-65
2022/05/04 07:12:16;;;;;;;19.40;11.82;;;;;;;11.77;60.32;99806.75;5050658;28;20053;-67
2022/05/04 07:14:41;;;;;;;22.27;11.30;;;;;;;11.82;59.93;99811.78;5050938;28;20033;-68
2022/05/04 07:17:06;;;;;;;20.02;11.82;;;;;;;11.89;59.43;99814.97;5049051;28;20511;-67
2022/05/04 07:19:31;;;;;;;15.90;10.45;;;;;;;11.87;59.89;99807.13;5028367;28;20029;-66
2022/05/04 07:21:57;;;;;;;24.65;11.75;;;;;;;11.99;59.70;99809.09;5020264;28;20049;-67
2022/05/04 07:24:22;;;;;;;22.98;11.30;;;;;;;11.97;59.03;99810.97;5032439;28;20044;-66
2022/05/04 07:26:47;;;;;;;21.65;12.23;;;;;;;11.88;59.20;99814.09;5026632;28;20055;-66
2022/05/04 07:29:13;;;;;;;18.55;11.35;;;;;;;11.81;59.21;99810.94;5028458;28;20049;-67
2022/05/04 07:31:38;;;;;;;20.30;11.32;;;;;;;11.91;59.42;99810.44;5027297;28;20055;-66
2022/05/04 07:34:04;;;;;;;20.35;11.82;;;;;;;12.13;59.65;99812.78;5025325;28;20041;-68
2022/05/04 07:36:29;;;;;;;22.50;12.88;;;;;;;12.08;59.21;99806.88;5026920;28;20044;-67
2022/05/04 07:38:55;;;;;;;15.35;10.45;;;;;;;12.13;59.30;99815.41;5026700;28;20037;-68
2022/05/04 07:44:04;;;;;;;28.30;12.85;;;;;;;12.32;58.42;99817.91;5027573;28;20071;-68
2022/05/04 07:46:30;;;;;;;19.45;12.07;;;;;;;12.42;57.76;99811.16;5026207;28;20502;-67
2022/05/04 07:48:58;;;;;;;20.02;12.13;;;;;;;12.60;57.97;99819.81;5030005;28;20843;-67
2022/05/04 07:51:23;;;;;;;19.40;11.82;;;;;;;12.72;57.97;99812.97;5026795;28;20506;-68
2022/05/04 07:53:48;;;;;;;19.85;10.73;;;;;;;12.81;57.98;99823.03;5027812;28;20044;-68
2022/05/04 07:56:14;;;;;;;14.45;10.60;;;;;;;12.86;57.15;99820.97;5027488;28;20049;-68
2022/05/04 07:58:39;;;;;;;23.02;12.27;;;;;;;12.88;57.33;99819.94;5028492;28;20044;-67
2022/05/04 08:06:32;;;;;;;24.83;12.40;;;;;;;13.29;55.75;99816.69;5018798;28;20048;-68
2022/05/04 08:08:57;;;;;;;41.30;15.00;;;;;;;13.50;56.28;99813.69;5026653;28;20034;-68
2022/05/04 08:11:23;;;;;;;22.27;12.52;;;;;;;13.80;54.94;99820.69;5026653;28;20037;-67
2022/05/04 08:13:48;;;;;;;18.55;11.60;;;;;;;14.35;52.89;99819.88;5036618;28;20033;-67
2022/05/04 08:16:13;;;;;;;18.52;12.20;;;;;;;14.55;52.58;99822.09;5030218;28;20041;-67
2022/05/04 08:18:40;;;;;;;26.83;14.30;;;;;;;14.78;51.51;99820.59;5026024;28;20045;-66
2022/05/04 08:21:06;;;;;;;23.80;13.57;;;;;;;14.99;50.94;99823.63;5026431;28;20036;-67
2022/05/04 08:23:32;;;;;;;22.90;12.40;;;;;;;15.16;50.64;99824.28;5026277;28;20087;-68
2022/05/04 08:25:57;;;;;;;26.73;13.32;;;;;;;15.25;50.42;99827.16;5024061;28;20037;-69
2022/05/04 08:28:23;;;;;;;25.33;11.95;;;;;;;15.43;49.88;99819.75;5026055;28;20125;-67
2022/05/04 08:30:49;;;;;;;21.40;12.20;;;;;;;15.32;50.64;99826.75;5022593;28;20132;-67
2022/05/04 08:33:14;;;;;;;21.13;12.32;;;;;;;15.84;48.88;99829.31;5027684;28;20789;-67
2022/05/04 08:35:39;;;;;;;21.30;13.40;;;;;;;16.09;48.59;99820.44;5027183;28;20041;-67
2022/05/04 08:38:05;;;;;;;17.73;13.30;;;;;;;16.07;48.67;99826.84;5021914;28;20581;-67
2022/05/04 08:40:31;;;;;;;27.05;12.50;;;;;;;16.31;47.90;99826.91;5027594;28;20034;-66
2022/05/04 08:42:59;;;;;;;19.65;12.30;;;;;;;16.41;47.59;99824.41;5027366;28;20029;-67
2022/05/04 08:45:25;;;;;;;18.33;12.02;;;;;;;16.33;47.54;99819.66;5026145;28;20038;-68
2022/05/04 08:47:51;;;;;;;19.73;12.30;;;;;;;16.20;47.81;99830.34;5025663;28;20045;-68
2022/05/04 08:50:17;;;;;;;22.38;15.40;;;;;;;15.99;48.45;99830.06;5026822;28;20115;-68
2022/05/04 08:52:51;;;;;;;27.15;13.13;;;;;;;16.04;48.44;99832.38;5027452;28;20079;-66
2022/05/04 08:55:17;;;;;;;21.30;12.80;;;;;;;15.80;48.98;99832.31;5026363;28;20071;-66
2022/05/04 08:57:42;;;;;;;95.82;21.98;;;;;;;15.85;49.26;99831.06;5026319;28;20530;-66
2022/05/04 09:00:10;;;;;;;51.30;18.60;;;;;;;16.46;47.55;99827.59;5026553;28;20087;-68
2022/05/04 09:02:36;;;;;;;17.10;12.30;;;;;;;16.68;46.46;99829.53;5026580;28;20418;-67
2022/05/04 09:05:32;;;;;;;24.25;15.00;;;;;;;16.42;47.14;99829.63;5026068;28;20691;-66
2022/05/04 09:07:58;;;;;;;29.25;15.30;;;;;;;16.16;47.61;99822.69;4994448;28;20046;-66
2022/05/04 09:10:32;;;;;;;20.05;14.15;;;;;;;16.10;47.67;99824.00;5014494;28;20037;-67
2022/05/04 09:12:59;;;;;;;33.35;16.10;;;;;;;16.25;47.55;99825.53;5032479;28;20134;-68
2022/05/04 09:15:26;;;;;;;19.98;13.20;;;;;;;16.57;46.57;99835.66;5044364;28;20066;-68
2022/05/04 09:18:00;;;;;;;24.25;15.57;;;;;;;17.02;45.68;99825.22;5044828;28;20524;-68
2022/05/04 09:23:28;;;;;;;31.02;14.68;;;;;;;17.94;43.67;99811.94;5065036;28;20732;-68
2022/05/04 09:25:56;;;;;;;21.08;12.32;;;;;;;18.82;43.04;99808.38;5064562;28;20032;-67
2022/05/04 09:28:26;;;;;;;22.27;14.45;;;;;;;19.69;39.95;99809.00;5064449;28;20032;-69
2022/05/04 09:30:54;;;;;;;26.92;16.25;;;;;;;19.72;39.90;99802.56;5064816;28;20052;-66
2022/05/04 09:33:31;;;;;;;27.83;14.73;;;;;;;20.27;38.92;99804.84;5063472;28;20036;-66
2022/05/04 09:35:59;;;;;;;28.08;16.25;;;;;;;20.48;38.28;99805.59;5055591;28;20036;-69
2022/05/04 09:46:49;;;;;;;21.98;14.38;;;;;;;19.80;39.75;99815.25;5041847;28;20452;-68
2022/05/04 09:49:21;;;;;;;20.63;14.18;;;;;;;19.77;39.64;99805.66;5042802;28;20699;-66
2022/05/04 09:51:53;;;;;;;24.95;15.15;;;;;;;19.73;39.67;99805.06;5041583;28;20792;-67
2022/05/04 09:54:19;;;;;;;23.45;15.55;;;;;;;19.27;40.78;99805.47;5032153;28;20761;-69
2022/05/04 09:56:46;;;;;;;21.13;14.23;;;;;;;19.43;40.58;99800.53;5041096;28;20075;-67
2022/05/04 09:59:13;;;;;;;24.55;16.20;;;;;;;20.14;39.25;99797.91;5041440;28;20390;-67
2022/05/04 10:01:40;;;;;;;20.92;13.63;;;;;;;20.49;37.91;99803.75;5041603;28;20044;-67
2022/05/04 10:04:06;;;;;;;21.63;14.10;;;;;;;20.75;37.73;99794.25;5041021;28;20113;-66
2022/05/04 10:06:32;;;;;;;19.67;13.70;;;;;;;20.44;37.97;99803.34;5040247;28;20041;-68
2022/05/04 10:08:57;;;;;;;24.10;15.55;;;;;;;20.42;38.07;99800.78;5041933;28;20041;-67
2022/05/04 10:11:23;;;;;;;20.42;16.15;;;;;;;20.29;37.95;99798.38;5042390;28;20067;-65
2022/05/04 10:13:54;;;;;;;31.30;16.67;;;;;;;20.22;38.29;99805.25;5055557;28;20121;-67
2022/05/04 10:16:20;;;;;;;21.95;16.05;;;;;;;20.82;37.88;99790.97;5062254;28;20040;-67
2022/05/04 10:18:48;;;;;;;21.55;16.30;;;;;;;21.47;36.56;99788.53;5059286;28;20036;-66
2022/05/04 10:21:17;;;;;;;24.92;17.48;;;;;;;21.76;35.49;99789.28;5062804;28;20746;-65
2022/05/04 10:23:54;;;;;;;23.85;17.10;;;;;;;22.21;34.50;99791.22;5064482;28;20048;-67
2022/05/04 10:26:31;;;;;;;21.67;17.23;;;;;;;22.40;34.24;99792.94;5065787;28;20040;-68
2022/05/04 10:32:03;;;;;;;23.92;16.00;;;;;;;22.96;33.36;99798.16;5009160;28;20044;-67
2022/05/04 10:34:28;;;;;;;23.73;18.42;;;;;;;22.40;33.99;99784.88;5046906;28;20079;-67
2022/05/04 10:36:53;;;;;;;20.80;17.63;;;;;;;22.40;34.15;99790.25;5046310;28;20422;-66
2022/05/04 10:39:21;;;;;;;24.40;18.33;;;;;;;22.09;34.68;99795.06;5047710;28;20613;-66
2022/05/04 10:41:47;;;;;;;24.23;17.80;;;;;;;22.55;34.10;99789.75;5047680;28;20511;-67
2022/05/04 10:44:13;;;;;;;30.23;20.13;;;;;;;22.38;34.50;99786.88;5047524;28;20037;-66
2022/05/04 10:46:40;;;;;;;23.67;18.13;;;;;;;22.54;35.12;99779.97;5047629;28;20151;-67
2022/05/04 10:49:11;;;;;;;33.88;19.42;;;;;;;22.22;35.26;99789.38;5047743;28;20033;-66
2022/05/04 10:51:44;;;;;;;23.70;18.38;;;;;;;21.97;35.11;99783.66;5048916;28;20029;-66
2022/05/04 10:54:19;;;;;;;23.02;18.70;;;;;;;21.47;36.47;99775.97;5046643;28;20044;-66
2022/05/04 10:56:46;;;;;;;22.80;16.25;;;;;;;20.94;38.74;99781.81;5029016;28;20060;-66
2022/05/04 10:59:13;;;;;;;28.20;20.10;;;;;;;21.00;37.13;99775.91;5031381;28;20406;-67
2022/05/04 11:01:40;;;;;;;25.20;19.63;;;;;;;20.86;37.56;99779.84;5030231;28;20033;-66
2022/05/04 11:04:05;;;;;;;23.55;19.48;;;;;;;20.34;38.88;99777.38;5031780;28;20045;-67
2022/05/04 11:06:35;;;;;;;26.25;19.77;;;;;;;20.43;39.20;99773.03;5030976;28;20037;-67
2022/05/04 11:09:15;;;;;;;28.73;20.55;;;;;;;20.47;38.17;99773.59;5024369;28;20048;-66
2022/05/04 11:11:42;;;;;;;24.80;19.27;;;;;;;20.42;38.20;99770.50;5011027;28;20042;-66
2022/05/04 11:14:09;;;;;;;26.17;21.92;;;;;;;20.23;38.10;99772.16;5007619;28;20048;-67
2022/05/04 11:16:35;;;;;;;24.83;18.38;;;;;;;20.20;38.62;99769.75;5034383;28;20040;-68
2022/05/04 11:19:02;;;;;;;23.83;18.30;;;;;;;19.93;39.11;99762.34;5045862;28;20126;-68
2022/05/04 11:21:29;;;;;;;28.48;19.13;;;;;;;19.79;39.37;99760.91;5046640;28;20131;-66
2022/05/04 11:23:57;;;;;;;28.65;20.05;;;;;;;18.99;40.81;99765.06;5047369;28;20095;-67
2022/05/04 11:26:45;;;;;;;32.00;19.30;;;;;;;18.74;41.65;99768.94;5040359;28;20048;-66
2022/05/04 11:29:12;;;;;;;26.02;19.40;;;;;;;19.04;41.01;99754.00;5026730;28;20458;-68
2022/05/04 11:31:46;;;;;;;28.75;17.90;;;;;;;19.28;41.20;99743.88;5026726;28;20498;-66
2022/05/04 11:34:16;;;;;;;21.58;16.55;;;;;;;19.45;40.81;99750.44;5026808;28;20041;-67
2022/05/04 11:36:46;;;;;;;26.52;18.50;;;;;;;19.24;41.00;99750.47;5026472;28;20065;-67
2022/05/04 11:39:22;;;;;;;24.20;16.73;;;;;;;19.51;40.09;99747.22;5025207;28;20049;-66
2022/05/04 11:41:50;;;;;;;29.75;19.05;;;;;;;19.77;39.56;99749.50;5049565;28;20448;-68
2022/05/04 11:44:17;;;;;;;29.95;16.08;;;;;;;19.88;38.51;99748.53;5050861;28;20040;-68
2022/05/04 11:46:43;;;;;;;22.88;16.88;;;;;;;19.81;37.93;99742.03;5048746;28;20494;-68
2022/05/04 11:49:10;;;;;;;18.45;15.23;;;;;;;19.64;38.74;99741.69;5046169;28;20051;-67
2022/05/04 11:51:36;;;;;;;25.48;16.67;;;;;;;19.80;38.73;99751.06;5046117;28;20733;-66
2022/05/04 11:54:02;;;;;;;27.55;15.25;;;;;;;19.72;38.34;99733.00;5046530;28;20056;-66
2022/05/04 11:56:27;;;;;;;21.67;12.82;;;;;;;19.85;37.78;99735.44;5045665;28;20146;-65
2022/05/04 11:58:53;;;;;;;20.38;13.60;;;;;;;19.98;36.19;99730.66;5046489;28;20053;-65